Time;durP1;ratioP1;P1;durP2;ratioP2;P2;SDS_P1;SDS_P2;PMS_P1;PMS_P2;Temp;Humidity;BMP_temperature;BMP_pressure;BME280_temperature;BME280_humidity;BME280_pressure;Samples;Min_cycle;Max_cycle;Signal;HPM_P1;HPM_P2
2022/03/22 00:00:23;;;;;;;49.47;28.50;;;;;;;;;;5053563;28;20056;-66
2022/03/22 00:02:49;;;;;;;44.38;28.30;;;;;;;;;;5053155;28;20090;-66
2022/03/22 00:05:18;;;;;;;45.72;28.10;;;;;;;;;;5070569;28;20478;-66
2022/03/22 00:07:44;;;;;;;55.28;28.77;;;;;;;;;;5071326;28;20036;-66
2022/03/22 00:10:10;;;;;;;50.97;29.30;;;;;;;;;;5053369;28;20474;-66
2022/03/22 00:12:36;;;;;;;52.35;29.25;;;;;;;;;;5052392;28;20040;-66
2022/03/22 00:15:03;;;;;;;54.42;29.50;;;;;;;;;;5071266;28;20068;-66
2022/03/22 00:17:30;;;;;;;48.20;29.20;;;;;;;;;;5070988;28;20455;-66
2022/03/22 00:19:56;;;;;;;54.10;32.17;;;;;;;;;;5071973;28;20483;-66
2022/03/22 00:22:22;;;;;;;51.63;28.83;;;;;;;;;;5075046;28;20047;-66
2022/03/22 00:24:48;;;;;;;52.50;30.10;;;;;;;;;;5074823;28;20045;-66
2022/03/22 00:27:14;;;;;;;50.70;30.13;;;;;;;;;;5073996;28;20463;-66
2022/03/22 00:29:40;;;;;;;53.92;30.30;;;;;;;;;;5074815;28;20047;-66
2022/03/22 00:32:08;;;;;;;55.15;31.30;;;;;;;;;;5056922;28;20479;-65
2022/03/22 00:34:41;;;;;;;50.10;29.90;;;;;;;;;;5074013;28;20044;-65
2022/03/22 00:37:07;;;;;;;52.80;29.73;;;;;;;;;;5056444;28;20048;-65
2022/03/22 00:39:33;;;;;;;54.53;29.48;;;;;;;;;;5074617;28;20041;-65
2022/03/22 00:41:59;;;;;;;55.95;30.17;;;;;;;;;;5055826;28;20443;-65
2022/03/22 00:44:25;;;;;;;49.42;28.52;;;;;;;;;;5074554;28;20036;-65
2022/03/22 00:46:51;;;;;;;49.85;28.40;;;;;;;;;;5074188;28;20051;-66
2022/03/22 00:49:17;;;;;;;47.60;28.30;;;;;;;;;;5055625;28;20143;-66
2022/03/22 00:51:44;;;;;;;48.45;28.10;;;;;;;;;;5074233;28;20068;-65
2022/03/22 00:54:10;;;;;;;39.95;25.98;;;;;;;;;;5056153;28;20090;-65
2022/03/22 00:56:36;;;;;;;49.90;29.25;;;;;;;;;;5073626;28;20475;-65
2022/03/22 01:01:46;;;;;;;51.72;28.38;;;;;;;;;;5074285;28;20040;-65
2022/03/22 01:04:12;;;;;;;51.97;29.27;;;;;;;;;;5073184;28;20494;-65
2022/03/22 01:06:38;;;;;;;46.55;27.25;;;;;;;;;;5074015;28;20087;-65
2022/03/22 01:09:04;;;;;;;47.20;28.33;;;;;;;;;;5056103;28;20056;-65
2022/03/22 01:11:30;;;;;;;46.95;27.33;;;;;;;;;;5055548;28;20052;-65
2022/03/22 01:13:57;;;;;;;46.97;27.35;;;;;;;;;;5073905;28;20483;-65
2022/03/22 01:16:23;;;;;;;45.55;27.42;;;;;;;;;;5073855;28;20123;-65
2022/03/22 01:18:49;;;;;;;46.47;29.00;;;;;;;;;;5073288;28;20048;-65
2022/03/22 01:21:15;;;;;;;46.88;27.20;;;;;;;;;;5073517;28;20036;-65
2022/03/22 01:23:41;;;;;;;46.70;29.55;;;;;;;;;;5073792;28;20044;-65
2022/03/22 01:26:07;;;;;;;44.75;26.45;;;;;;;;;;5072922;28;20039;-65
2022/03/22 01:28:34;;;;;;;48.63;27.67;;;;;;;;;;5055466;28;20044;-65
2022/03/22 01:31:00;;;;;;;45.90;27.42;;;;;;;;;;5073392;28;20051;-65
2022/03/22 01:33:26;;;;;;;47.35;27.88;;;;;;;;;;5055162;28;20128;-65
2022/03/22 01:35:52;;;;;;;45.78;27.63;;;;;;;;;;5055496;28;20072;-65
2022/03/22 01:38:18;;;;;;;45.88;29.13;;;;;;;;;;5073237;28;20057;-65
2022/03/22 01:40:44;;;;;;;48.63;28.73;;;;;;;;;;5054637;28;20052;-65
2022/03/22 01:43:10;;;;;;;48.03;28.98;;;;;;;;;;5073595;28;20458;-65
2022/03/22 01:45:37;;;;;;;51.03;28.85;;;;;;;;;;5073483;28;20039;-65
2022/03/22 01:48:04;;;;;;;50.55;29.05;;;;;;;;;;5072695;28;20051;-65
2022/03/22 01:50:30;;;;;;;45.85;26.17;;;;;;;;;;5055294;28;20049;-65
2022/03/22 01:52:57;;;;;;;47.60;27.35;;;;;;;;;;5055496;28;20050;-65
2022/03/22 01:55:26;;;;;;;50.88;28.50;;;;;;;;;;5037609;28;20048;-65
2022/03/22 01:57:52;;;;;;;48.55;27.80;;;;;;;;;;5072989;28;20119;-65
2022/03/22 02:00:19;;;;;;;48.08;27.27;;;;;;;;;;5072963;28;20052;-65
2022/03/22 02:05:51;;;;;;;47.10;26.20;;;;;;;;;;5073007;28;20043;-65
2022/03/22 02:08:18;;;;;;;46.53;27.88;;;;;;;;;;5055109;28;20044;-65
2022/03/22 02:10:44;;;;;;;44.40;27.92;;;;;;;;;;5072304;28;20123;-65
2022/03/22 02:13:10;;;;;;;45.45;27.70;;;;;;;;;;5054800;28;20088;-65
2022/03/22 02:15:36;;;;;;;53.15;28.67;;;;;;;;;;5072883;28;20047;-65
2022/03/22 02:18:03;;;;;;;51.83;30.63;;;;;;;;;;5053872;28;20043;-65
2022/03/22 02:20:29;;;;;;;51.25;28.95;;;;;;;;;;5054837;28;20052;-65
2022/03/22 02:22:58;;;;;;;49.20;29.58;;;;;;;;;;5072745;28;20459;-65
2022/03/22 02:25:25;;;;;;;44.42;27.17;;;;;;;;;;5071551;28;20043;-65
2022/03/22 02:27:54;;;;;;;47.08;27.38;;;;;;;;;;5072447;28;20047;-65
2022/03/22 02:30:20;;;;;;;50.03;29.25;;;;;;;;;;5072569;28;20090;-65
2022/03/22 02:32:51;;;;;;;46.15;28.38;;;;;;;;;;5071570;28;20068;-65
2022/03/22 02:35:18;;;;;;;44.72;28.00;;;;;;;;;;5072408;28;20083;-65
2022/03/22 02:37:44;;;;;;;48.88;28.60;;;;;;;;;;5072006;28;20575;-65
2022/03/22 02:40:12;;;;;;;46.45;28.92;;;;;;;;;;5071521;28;20037;-65
2022/03/22 02:42:40;;;;;;;52.28;29.67;;;;;;;;;;5071668;28;20040;-65
2022/03/22 02:45:07;;;;;;;46.65;29.58;;;;;;;;;;5071933;28;20043;-65
2022/03/22 02:47:33;;;;;;;51.28;28.52;;;;;;;;;;5053353;28;20097;-65
2022/03/22 02:49:59;;;;;;;42.33;25.90;;;;;;;;;;5072168;28;20492;-65
2022/03/22 02:52:25;;;;;;;51.78;29.17;;;;;;;;;;5054180;28;20058;-65
2022/03/22 02:54:51;;;;;;;51.35;29.00;;;;;;;;;;5071093;28;20082;-65
2022/03/22 02:57:17;;;;;;;45.83;28.45;;;;;;;;;;5054089;28;20051;-65
2022/03/22 02:59:43;;;;;;;48.45;27.83;;;;;;;;;;5054065;28;20040;-65
2022/03/22 03:02:10;;;;;;;53.58;28.70;;;;;;;;;;5071291;28;20044;-65
2022/03/22 03:04:36;;;;;;;47.72;27.95;;;;;;;;;;5071585;28;20041;-65
2022/03/22 03:07:02;;;;;;;50.95;28.75;;;;;;;;;;5071539;28;20041;-65
2022/03/22 03:09:28;;;;;;;45.47;26.52;;;;;;;;;;5071327;28;20080;-65
2022/03/22 03:11:54;;;;;;;47.47;27.35;;;;;;;;;;5071968;28;20048;-65
2022/03/22 03:14:38;;;;;;;50.42;26.67;;;;;;;;;;5071602;28;20168;-65
2022/03/22 03:17:05;;;;;;;45.78;27.15;;;;;;;;;;5070902;28;20045;-65
2022/03/22 03:19:31;;;;;;;47.83;28.25;;;;;;;;;;5053627;28;20048;-65
2022/03/22 03:21:57;;;;;;;48.55;26.55;;;;;;;;;;5071693;28;20051;-65
2022/03/22 03:24:23;;;;;;;42.20;25.80;;;;;;;;;;5053020;28;20483;-65
2022/03/22 03:26:50;;;;;;;46.55;25.77;;;;;;;;;;5071488;28;20351;-65
2022/03/22 03:29:16;;;;;;;41.00;25.90;;;;;;;;;;5071409;28;20040;-65
2022/03/22 03:31:42;;;;;;;40.70;25.40;;;;;;;;;;5071067;28;20056;-65
2022/03/22 03:34:08;;;;;;;47.58;26.75;;;;;;;;;;5071747;28;20486;-65
2022/03/22 03:36:34;;;;;;;44.05;26.83;;;;;;;;;;5053043;28;20067;-65
2022/03/22 03:39:02;;;;;;;45.05;27.02;;;;;;;;;;5052757;28;20060;-65
2022/03/22 03:47:04;;;;;;;40.92;26.30;;;;;;;;;;5070895;28;20471;-65
2022/03/22 03:49:30;;;;;;;48.83;27.17;;;;;;;;;;5071415;28;20040;-65
2022/03/22 03:51:56;;;;;;;46.92;27.52;;;;;;;;;;5071492;28;20402;-65
2022/03/22 03:54:22;;;;;;;43.63;26.52;;;;;;;;;;5072717;28;20041;-65
2022/03/22 03:56:48;;;;;;;46.30;26.50;;;;;;;;;;5075432;28;20040;-65
2022/03/22 03:59:14;;;;;;;50.85;28.83;;;;;;;;;;5075368;28;20039;-65
2022/03/22 04:01:40;;;;;;;46.15;27.13;;;;;;;;;;5074872;28;20390;-65
2022/03/22 04:04:06;;;;;;;45.90;26.92;;;;;;;;;;5075344;28;20398;-65
2022/03/22 04:06:33;;;;;;;47.22;28.20;;;;;;;;;;5075221;28;20040;-65
2022/03/22 04:08:59;;;;;;;45.25;27.67;;;;;;;;;;5074635;28;20382;-65
2022/03/22 04:11:25;;;;;;;47.13;27.65;;;;;;;;;;5057032;28;20101;-65
2022/03/22 04:13:51;;;;;;;43.45;27.25;;;;;;;;;;5057027;28;20075;-65
2022/03/22 04:16:17;;;;;;;52.97;28.23;;;;;;;;;;5074099;28;20506;-65
2022/03/22 04:18:43;;;;;;;49.53;29.60;;;;;;;;;;5074998;28;20046;-65
2022/03/22 04:21:10;;;;;;;48.78;28.13;;;;;;;;;;5074747;28;20178;-65
2022/03/22 04:23:36;;;;;;;47.92;28.95;;;;;;;;;;5074014;28;20041;-65
2022/03/22 04:26:02;;;;;;;52.30;29.23;;;;;;;;;;5056686;28;20085;-65
2022/03/22 04:34:01;;;;;;;50.22;29.13;;;;;;;;;;5074533;28;20052;-65
2022/03/22 04:36:28;;;;;;;51.10;30.08;;;;;;;;;;5039906;28;20118;-65
2022/03/22 04:38:55;;;;;;;51.00;29.02;;;;;;;;;;5055849;28;20538;-65
2022/03/22 04:41:23;;;;;;;48.85;29.67;;;;;;;;;;5056480;28;20045;-65
2022/03/22 04:43:50;;;;;;;49.38;29.55;;;;;;;;;;5056649;28;20487;-65
2022/03/22 04:46:18;;;;;;;50.83;30.13;;;;;;;;;;5055853;28;20051;-65
2022/03/22 04:48:45;;;;;;;50.60;29.90;;;;;;;;;;5056526;28;20052;-65
2022/03/22 04:56:48;;;;;;;48.53;30.08;;;;;;;;;;5074188;28;20052;-65
2022/03/22 04:59:15;;;;;;;59.38;30.67;;;;;;;;;;5074380;28;20539;-65
2022/03/22 05:01:45;;;;;;;51.97;30.02;;;;;;;;;;5073631;28;20047;-65
2022/03/22 05:04:11;;;;;;;49.55;29.60;;;;;;;;;;5074262;28;20043;-65
2022/03/22 05:06:38;;;;;;;52.50;31.33;;;;;;;;;;5073454;28;20037;-65
2022/03/22 05:09:07;;;;;;;53.22;30.08;;;;;;;;;;5073507;28;20044;-65
2022/03/22 05:11:34;;;;;;;50.38;29.35;;;;;;;;;;5056133;28;20053;-65
2022/03/22 05:14:00;;;;;;;53.80;30.20;;;;;;;;;;5074152;28;20040;-65
2022/03/22 05:16:27;;;;;;;50.20;28.65;;;;;;;;;;5055107;28;20048;-65
2022/03/22 05:18:54;;;;;;;52.63;29.70;;;;;;;;;;5073580;28;20051;-65
2022/03/22 05:21:20;;;;;;;54.08;29.67;;;;;;;;;;5073931;28;20368;-65
2022/03/22 05:23:46;;;;;;;50.97;29.33;;;;;;;;;;5072959;28;20097;-65
2022/03/22 05:26:12;;;;;;;53.30;29.55;;;;;;;;;;5073584;28;20040;-65
2022/03/22 05:28:39;;;;;;;47.58;27.75;;;;;;;;;;5055449;28;20133;-65
2022/03/22 05:31:05;;;;;;;49.42;28.70;;;;;;;;;;5073061;28;20434;-65
2022/03/22 05:33:32;;;;;;;54.65;29.88;;;;;;;;;;5073384;28;20049;-65
2022/03/22 05:35:58;;;;;;;49.92;29.38;;;;;;;;;;5073596;28;20041;-65
2022/03/22 05:38:27;;;;;;;48.88;29.23;;;;;;;;;;5072513;28;20099;-65
2022/03/22 05:40:56;;;;;;;48.42;30.25;;;;;;;;;;5073377;28;20076;-65
2022/03/22 05:43:22;;;;;;;51.13;30.80;;;;;;;;;;5073222;28;20570;-65
2022/03/22 05:45:48;;;;;;;51.45;30.02;;;;;;;;;;5072591;28;20489;-65
2022/03/22 05:48:18;;;;;;;53.45;31.00;;;;;;;;;;5055497;28;20044;-65
2022/03/22 05:50:44;;;;;;;45.33;29.25;;;;;;;;;;5073315;28;20440;-65
2022/03/22 05:53:10;;;;;;;49.78;30.40;;;;;;;;;;5072790;28;20408;-65
2022/03/22 05:55:37;;;;;;;51.22;29.40;;;;;;;;;;5073330;28;20481;-65
2022/03/22 05:58:03;;;;;;;50.22;30.27;;;;;;;;;;5073133;28;20131;-65
2022/03/22 06:00:30;;;;;;;50.90;29.25;;;;;;;;;;5072417;28;20037;-65
2022/03/22 06:02:56;;;;;;;51.10;30.40;;;;;;;;;;5072874;28;20040;-65
2022/03/22 06:05:22;;;;;;;50.13;29.45;;;;;;;;;;5054674;28;20109;-65
2022/03/22 06:07:48;;;;;;;55.80;30.92;;;;;;;;;;5072141;28;20041;-65
2022/03/22 06:10:14;;;;;;;47.45;29.17;;;;;;;;;;5073123;28;20386;-65
2022/03/22 06:12:45;;;;;;;55.58;31.00;;;;;;;;;;5073010;28;20076;-65
2022/03/22 06:15:16;;;;;;;52.53;30.38;;;;;;;;;;5053928;28;20045;-65
2022/03/22 06:17:50;;;;;;;52.08;31.10;;;;;;;;;;5071589;28;20097;-65
2022/03/22 06:20:17;;;;;;;51.00;30.00;;;;;;;;;;5054486;28;20482;-65
2022/03/22 06:22:45;;;;;;;58.42;31.40;;;;;;;;;;5071993;28;20085;-65
2022/03/22 06:25:11;;;;;;;49.00;28.58;;;;;;;;;;5072514;28;20044;-65
2022/03/22 06:27:38;;;;;;;52.42;30.48;;;;;;;;;;5072668;28;20037;-65
2022/03/22 06:30:05;;;;;;;52.25;31.40;;;;;;;;;;5053648;28;20040;-65
2022/03/22 06:32:31;;;;;;;54.15;30.13;;;;;;;;;;5054303;28;20048;-65
2022/03/22 06:34:57;;;;;;;50.50;29.45;;;;;;;;;;5072523;28;20510;-65
2022/03/22 06:37:23;;;;;;;48.85;30.67;;;;;;;;;;5052932;28;20457;-65
2022/03/22 06:39:49;;;;;;;50.75;28.30;;;;;;;;;;5072358;28;20044;-65
2022/03/22 06:42:15;;;;;;;51.92;30.75;;;;;;;;;;5054101;28;20467;-65
2022/03/22 06:44:41;;;;;;;50.08;29.65;;;;;;;;;;5071596;28;20044;-65
2022/03/22 06:47:07;;;;;;;49.08;29.35;;;;;;;;;;5071708;28;20040;-66
2022/03/22 06:49:33;;;;;;;46.47;28.30;;;;;;;;;;5063530;28;20067;-65
2022/03/22 06:51:59;;;;;;;49.13;30.20;;;;;;;;;;5050962;28;20040;-65
2022/03/22 06:54:27;;;;;;;50.53;29.25;;;;;;;;;;5051723;28;20045;-65
2022/03/22 06:56:53;;;;;;;49.78;30.10;;;;;;;;;;5033750;28;20056;-65
2022/03/22 06:59:20;;;;;;;50.58;29.90;;;;;;;;;;5054080;28;20039;-65
2022/03/22 07:01:46;;;;;;;48.40;28.85;;;;;;;;;;5059131;28;20048;-65
2022/03/22 07:04:12;;;;;;;63.42;32.25;;;;;;;;;;5033915;28;20040;-66
2022/03/22 07:06:38;;;;;;;51.50;30.52;;;;;;;;;;5050936;28;20036;-66
2022/03/22 07:09:04;;;;;;;48.35;30.90;;;;;;;;;;5051757;28;20045;-65
2022/03/22 07:14:14;;;;;;;49.92;30.73;;;;;;;;;;5048312;28;20052;-65
2022/03/22 07:16:40;;;;;;;53.45;31.27;;;;;;;;;;5070504;28;20195;-65
2022/03/22 07:19:06;;;;;;;51.60;31.10;;;;;;;;;;5070210;28;20731;-65
2022/03/22 07:21:32;;;;;;;52.97;29.52;;;;;;;;;;5068192;28;20049;-66
2022/03/22 07:23:58;;;;;;;50.15;30.90;;;;;;;;;;5070525;28;20039;-67
2022/03/22 07:26:25;;;;;;;53.70;31.40;;;;;;;;;;5042678;28;20463;-66
2022/03/22 07:28:51;;;;;;;51.78;31.13;;;;;;;;;;5031983;28;20041;-66
2022/03/22 07:31:17;;;;;;;49.72;30.77;;;;;;;;;;5033285;28;20123;-66
2022/03/22 07:33:43;;;;;;;52.10;31.63;;;;;;;;;;5032726;28;20105;-66
2022/03/22 07:36:09;;;;;;;54.22;30.77;;;;;;;;;;5056381;28;20048;-65
2022/03/22 07:38:35;;;;;;;55.00;30.92;;;;;;;;;;5056461;28;20155;-66
2022/03/22 07:41:03;;;;;;;54.78;31.23;;;;;;;;;;5036368;28;20775;-66
2022/03/22 07:43:30;;;;;;;54.38;30.70;;;;;;;;;;5031707;28;20124;-66
2022/03/22 07:45:56;;;;;;;46.65;30.42;;;;;;;;;;5043557;28;20115;-66
2022/03/22 07:48:22;;;;;;;59.20;31.70;;;;;;;;;;5039389;28;20476;-66
2022/03/22 07:53:33;;;;;;;52.80;30.88;;;;;;;;;;5049857;28;20052;-65
2022/03/22 07:55:59;;;;;;;51.22;30.73;;;;;;;;;;5050228;28;20067;-64
2022/03/22 07:58:25;;;;;;;55.38;32.03;;;;;;;;;;5048889;28;20095;-67
2022/03/22 08:00:52;;;;;;;51.15;31.35;;;;;;;;;;5050194;28;20431;-65
2022/03/22 08:03:18;;;;;;;53.58;31.60;;;;;;;;;;5032258;28;20048;-65
2022/03/22 08:05:48;;;;;;;54.33;31.27;;;;;;;;;;5033499;28;20554;-65
2022/03/22 08:08:14;;;;;;;54.92;31.33;;;;;;;;;;5049301;28;20055;-64
2022/03/22 08:10:42;;;;;;;50.25;30.35;;;;;;;;;;5040707;28;20044;-65
2022/03/22 08:13:08;;;;;;;50.33;29.58;;;;;;;;;;5058885;28;20044;-63
2022/03/22 08:15:35;;;;;;;55.20;29.52;;;;;;;;;;5068859;28;20044;-65
2022/03/22 08:18:01;;;;;;;50.97;28.10;;;;;;;;;;5043400;28;20118;-65
2022/03/22 08:20:28;;;;;;;51.38;29.13;;;;;;;;;;5050055;28;20028;-65
2022/03/22 08:22:54;;;;;;;46.38;27.25;;;;;;;;;;5050050;28;20408;-64
2022/03/22 08:25:28;;;;;;;43.97;27.55;;;;;;;;;;5050043;28;20041;-65
2022/03/22 08:27:55;;;;;;;45.97;27.33;;;;;;;;;;5061926;28;20709;-63
2022/03/22 08:30:22;;;;;;;42.55;26.27;;;;;;;;;;5049591;28;20144;-65
2022/03/22 08:32:51;;;;;;;50.45;26.02;;;;;;;;;;5050032;28;20123;-64
2022/03/22 08:35:21;;;;;;;41.53;24.67;;;;;;;;;;5049170;28;20128;-64
2022/03/22 08:37:47;;;;;;;42.78;25.45;;;;;;;;;;5045340;28;20049;-64
2022/03/22 08:40:14;;;;;;;41.65;25.40;;;;;;;;;;5046812;28;20041;-63
2022/03/22 08:42:44;;;;;;;40.85;25.20;;;;;;;;;;5060781;28;20063;-66
2022/03/22 08:45:14;;;;;;;45.40;25.95;;;;;;;;;;5039230;28;20119;-66
2022/03/22 08:47:41;;;;;;;42.92;25.33;;;;;;;;;;5045896;28;20124;-65
2022/03/22 08:50:11;;;;;;;39.47;24.50;;;;;;;;;;5034268;28;20049;-65
2022/03/22 08:52:38;;;;;;;41.10;24.77;;;;;;;;;;5052457;28;20152;-68
2022/03/22 08:55:05;;;;;;;36.85;23.27;;;;;;;;;;5051925;28;20069;-67
2022/03/22 08:57:31;;;;;;;44.13;24.63;;;;;;;;;;5052020;28;20041;-65
2022/03/22 08:59:58;;;;;;;43.22;23.67;;;;;;;;;;5068764;28;20094;-66
2022/03/22 09:02:24;;;;;;;38.63;24.67;;;;;;;;;;5054018;28;20033;-65
2022/03/22 09:07:34;;;;;;;41.88;24.70;;;;;;;;;;5052019;28;20049;-66
2022/03/22 09:10:01;;;;;;;42.15;24.20;;;;;;;;;;5052440;28;20625;-66
2022/03/22 09:12:27;;;;;;;43.25;23.65;;;;;;;;;;5052266;28;20041;-65
2022/03/22 09:14:53;;;;;;;40.42;24.50;;;;;;;;;;5054294;28;20045;-64
2022/03/22 09:17:20;;;;;;;41.97;23.60;;;;;;;;;;5062424;28;20044;-64
2022/03/22 09:19:46;;;;;;;39.65;23.48;;;;;;;;;;5052639;28;20414;-64
2022/03/22 09:22:14;;;;;;;42.00;23.08;;;;;;;;;;5052422;28;20476;-64
2022/03/22 09:24:40;;;;;;;40.10;24.27;;;;;;;;;;5052011;28;20048;-65
2022/03/22 09:27:06;;;;;;;39.10;23.58;;;;;;;;;;5053105;28;20088;-65
2022/03/22 09:29:32;;;;;;;40.92;24.38;;;;;;;;;;5051967;28;20045;-64
2022/03/22 09:31:58;;;;;;;39.22;23.15;;;;;;;;;;5052666;28;20390;-64
2022/03/22 09:34:25;;;;;;;36.10;23.10;;;;;;;;;;5051383;28;20072;-65
2022/03/22 09:36:51;;;;;;;39.92;24.27;;;;;;;;;;5051562;28;20560;-65
2022/03/22 09:39:19;;;;;;;40.10;23.98;;;;;;;;;;5062499;28;20098;-63
2022/03/22 09:41:46;;;;;;;44.63;24.13;;;;;;;;;;5061387;28;20099;-65
2022/03/22 09:44:12;;;;;;;41.55;24.13;;;;;;;;;;5051966;28;20064;-65
2022/03/22 09:46:38;;;;;;;40.17;23.60;;;;;;;;;;5058167;28;20502;-65
2022/03/22 09:49:09;;;;;;;42.65;24.58;;;;;;;;;;5051144;28;20151;-65
2022/03/22 09:51:45;;;;;;;40.08;24.88;;;;;;;;;;5033403;28;20080;-65
2022/03/22 09:54:15;;;;;;;49.75;25.02;;;;;;;;;;5052481;28;20099;-65
2022/03/22 09:56:42;;;;;;;39.88;23.73;;;;;;;;;;5032796;28;20045;-65
2022/03/22 09:59:09;;;;;;;39.53;24.55;;;;;;;;;;5063494;28;20049;-65
2022/03/22 10:01:35;;;;;;;37.80;23.52;;;;;;;;;;5053891;28;20357;-65
2022/03/22 10:04:01;;;;;;;40.63;24.05;;;;;;;;;;5041079;28;20044;-67
2022/03/22 10:06:31;;;;;;;38.08;23.35;;;;;;;;;;5036576;28;20052;-66
2022/03/22 10:08:57;;;;;;;38.38;24.50;;;;;;;;;;5033807;28;20053;-66
2022/03/22 10:11:33;;;;;;;39.92;24.95;;;;;;;;;;5051311;28;20033;-65
2022/03/22 10:14:00;;;;;;;40.90;23.02;;;;;;;;;;5049136;28;20036;-66
2022/03/22 10:16:26;;;;;;;37.53;24.10;;;;;;;;;;5052099;28;20048;-65
2022/03/22 10:18:52;;;;;;;35.53;22.65;;;;;;;;;;5032801;28;20052;-65
2022/03/22 10:21:19;;;;;;;45.50;25.55;;;;;;;;;;5051912;28;20044;-65
2022/03/22 10:23:48;;;;;;;37.88;24.02;;;;;;;;;;5051868;28;20133;-66
2022/03/22 10:26:14;;;;;;;39.80;24.67;;;;;;;;;;5054101;28;20048;-65
2022/03/22 10:28:49;;;;;;;42.30;23.60;;;;;;;;;;5060557;28;20055;-66
2022/03/22 10:31:16;;;;;;;42.05;23.75;;;;;;;;;;5051412;28;20048;-65
2022/03/22 10:33:49;;;;;;;37.75;22.88;;;;;;;;;;5050971;28;20072;-65
2022/03/22 10:36:15;;;;;;;35.03;21.90;;;;;;;;;;5051105;28;20047;-67
2022/03/22 10:38:52;;;;;;;40.20;22.30;;;;;;;;;;5051776;28;20048;-66
2022/03/22 10:41:24;;;;;;;35.35;22.08;;;;;;;;;;5040799;28;20045;-66
2022/03/22 10:44:00;;;;;;;35.88;22.65;;;;;;;;;;5052398;28;20037;-67
2022/03/22 10:46:27;;;;;;;36.75;22.00;;;;;;;;;;5063422;28;20060;-67
2022/03/22 10:49:00;;;;;;;40.45;23.40;;;;;;;;;;5058433;28;20083;-66
2022/03/22 10:51:31;;;;;;;39.88;23.80;;;;;;;;;;5060176;28;20057;-67
2022/03/22 10:53:58;;;;;;;37.97;22.53;;;;;;;;;;5056943;28;20055;-66
2022/03/22 10:56:25;;;;;;;39.72;21.90;;;;;;;;;;5057428;28;20102;-66
2022/03/22 10:58:51;;;;;;;34.83;20.08;;;;;;;;;;5051532;28;20523;-65
2022/03/22 11:01:19;;;;;;;37.42;22.23;;;;;;;;;;5052933;28;20708;-66
2022/03/22 11:03:46;;;;;;;37.80;20.77;;;;;;;;;;5054873;28;20044;-64
2022/03/22 11:06:12;;;;;;;38.97;22.90;;;;;;;;;;5062366;28;20032;-65
2022/03/22 11:08:41;;;;;;;35.88;22.88;;;;;;;;;;5069035;28;20096;-66
2022/03/22 11:11:07;;;;;;;41.83;22.90;;;;;;;;;;5049596;28;20052;-66
2022/03/22 11:13:33;;;;;;;35.85;21.75;;;;;;;;;;5058025;28;20052;-66
2022/03/22 11:16:00;;;;;;;33.72;22.05;;;;;;;;;;5052442;28;20051;-66
2022/03/22 11:18:28;;;;;;;35.83;22.42;;;;;;;;;;5052214;28;20110;-65
2022/03/22 11:20:59;;;;;;;38.15;22.33;;;;;;;;;;5067142;28;20048;-66
2022/03/22 11:23:27;;;;;;;36.22;23.60;;;;;;;;;;5050535;28;20643;-65
2022/03/22 11:25:53;;;;;;;36.00;22.55;;;;;;;;;;5054707;28;20078;-66
2022/03/22 11:28:21;;;;;;;38.25;22.98;;;;;;;;;;5056339;28;20048;-65
2022/03/22 11:30:47;;;;;;;34.92;22.85;;;;;;;;;;5061595;28;20048;-66
2022/03/22 11:36:00;;;;;;;40.08;23.02;;;;;;;;;;5067743;28;20285;-66
2022/03/22 11:38:45;;;;;;;37.88;22.63;;;;;;;;;;5064274;28;20052;-66
2022/03/22 11:44:12;;;;;;;39.75;22.65;;;;;;;;;;5054632;28;20044;-66
2022/03/22 11:46:39;;;;;;;38.67;21.88;;;;;;;;;;5063217;28;20041;-66
2022/03/22 11:49:34;;;;;;;35.67;21.45;;;;;;;;;;5049762;28;20041;-66
2022/03/22 11:52:13;;;;;;;34.42;21.35;;;;;;;;;;5038273;28;20053;-66
2022/03/22 11:54:40;;;;;;;38.25;23.00;;;;;;;;;;5049795;28;20072;-66
2022/03/22 11:57:07;;;;;;;38.50;21.95;;;;;;;;;;5050220;28;20063;-66
2022/03/22 11:59:43;;;;;;;37.83;21.10;;;;;;;;;;5050419;28;20052;-66
2022/03/22 12:02:15;;;;;;;35.70;21.38;;;;;;;;;;5063502;28;20044;-66
2022/03/22 12:04:51;;;;;;;32.58;22.45;;;;;;;;;;5058051;28;20098;-66
2022/03/22 12:07:22;;;;;;;43.72;22.42;;;;;;;;;;5058584;28;20553;-66
2022/03/22 12:09:48;;;;;;;39.65;22.42;;;;;;;;;;5049478;28;20045;-66
2022/03/22 12:12:15;;;;;;;34.80;19.83;;;;;;;;;;5049393;28;20037;-67
2022/03/22 12:14:42;;;;;;;41.33;20.73;;;;;;;;;;5050730;28;20075;-66
2022/03/22 12:17:30;;;;;;;37.45;20.77;;;;;;;;;;5035493;28;20056;-66
2022/03/22 12:19:59;;;;;;;35.20;21.75;;;;;;;;;;5052899;28;20057;-65
2022/03/22 12:22:26;;;;;;;31.60;19.98;;;;;;;;;;5054031;28;20569;-66
2022/03/22 12:24:52;;;;;;;33.33;19.73;;;;;;;;;;5035345;28;20353;-66
2022/03/22 12:27:19;;;;;;;34.63;19.70;;;;;;;;;;5060487;28;20492;-67
2022/03/22 12:29:47;;;;;;;35.33;19.90;;;;;;;;;;5054025;28;20063;-67
2022/03/22 12:32:17;;;;;;;33.58;19.27;;;;;;;;;;5056111;28;20095;-66
2022/03/22 12:34:44;;;;;;;32.97;20.05;;;;;;;;;;5067261;28;20063;-65
2022/03/22 12:37:12;;;;;;;37.28;21.10;;;;;;;;;;5053432;28;20053;-66
2022/03/22 12:39:41;;;;;;;33.97;19.88;;;;;;;;;;5053395;28;20103;-65
2022/03/22 12:42:07;;;;;;;34.45;20.83;;;;;;;;;;5053736;28;20041;-67
2022/03/22 12:44:34;;;;;;;32.38;19.00;;;;;;;;;;5063351;28;20433;-67
2022/03/22 12:47:01;;;;;;;32.50;19.30;;;;;;;;;;5064504;28;20822;-66
2022/03/22 12:49:27;;;;;;;33.28;19.27;;;;;;;;;;5052881;28;20069;-68
2022/03/22 12:51:54;;;;;;;30.42;18.85;;;;;;;;;;5040104;28;20060;-66
2022/03/22 12:54:21;;;;;;;33.42;18.20;;;;;;;;;;5055718;28;20064;-68
2022/03/22 12:56:48;;;;;;;30.35;18.27;;;;;;;;;;5054012;28;20120;-68
2022/03/22 12:59:18;;;;;;;30.95;18.77;;;;;;;;;;5040715;28;20046;-68
2022/03/22 13:01:44;;;;;;;32.25;17.63;;;;;;;;;;5071960;28;20466;-68
2022/03/22 13:04:10;;;;;;;32.08;18.98;;;;;;;;;;5056247;28;20049;-66
2022/03/22 13:06:37;;;;;;;30.67;18.75;;;;;;;;;;5053073;28;20036;-67
2022/03/22 13:11:47;;;;;;;31.45;19.63;;;;;;;;;;5052858;28;20052;-68
2022/03/22 13:16:59;;;;;;;27.00;17.63;;;;;;;;;;5052349;28;20053;-68
2022/03/22 13:19:32;;;;;;;34.70;19.77;;;;;;;;;;5052495;28;20128;-68
2022/03/22 13:21:59;;;;;;;30.67;17.80;;;;;;;;;;5035353;28;20047;-67
2022/03/22 13:24:26;;;;;;;28.10;17.20;;;;;;;;;;5047610;28;20458;-67
2022/03/22 13:26:52;;;;;;;28.52;18.00;;;;;;;;;;5068830;28;20134;-67
2022/03/22 13:29:19;;;;;;;28.00;17.13;;;;;;;;;;5053340;28;20124;-68
2022/03/22 13:31:56;;;;;;;26.35;16.33;;;;;;;;;;5066346;28;20040;-66
2022/03/22 13:34:26;;;;;;;26.60;17.13;;;;;;;;;;5064819;28;20064;-69
2022/03/22 13:37:02;;;;;;;28.60;17.13;;;;;;;;;;5034359;28;20124;-68
2022/03/22 13:39:29;;;;;;;23.73;16.08;;;;;;;;;;5066105;28;20131;-67
2022/03/22 13:42:04;;;;;;;26.75;17.27;;;;;;;;;;5057315;28;20373;-68
2022/03/22 13:44:31;;;;;;;28.25;16.15;;;;;;;;;;5065536;28;20475;-67
2022/03/22 13:46:59;;;;;;;28.45;16.90;;;;;;;;;;5069110;28;20047;-67
2022/03/22 13:49:35;;;;;;;26.90;17.00;;;;;;;;;;5069644;28;20058;-66
2022/03/22 13:52:02;;;;;;;26.63;16.35;;;;;;;;;;5060172;28;20043;-66
2022/03/22 13:54:28;;;;;;;27.80;16.25;;;;;;;;;;5068065;28;20435;-65
2022/03/22 13:57:04;;;;;;;25.05;15.23;;;;;;;;;;5068391;28;20037;-68
2022/03/22 13:59:37;;;;;;;24.55;16.13;;;;;;;;;;5069676;28;20040;-68
2022/03/22 14:02:05;;;;;;;23.65;13.98;;;;;;;;;;5070519;28;20127;-68
2022/03/22 14:04:34;;;;;;;27.27;15.25;;;;;;;;;;5058269;28;20111;-67
2022/03/22 14:07:01;;;;;;;24.33;14.63;;;;;;;;;;5068850;28;20363;-68
2022/03/22 14:09:27;;;;;;;23.83;14.65;;;;;;;;;;5068603;28;20351;-66
2022/03/22 14:11:53;;;;;;;21.42;13.52;;;;;;;;;;5066145;28;20106;-65
2022/03/22 14:14:19;;;;;;;26.42;15.57;;;;;;;;;;5070339;28;20037;-67
2022/03/22 14:16:45;;;;;;;26.33;16.58;;;;;;;;;;5060247;28;20094;-67
2022/03/22 14:19:13;;;;;;;24.65;16.08;;;;;;;;;;5060726;28;20043;-65
2022/03/22 14:21:40;;;;;;;22.77;14.75;;;;;;;;;;5061351;28;20051;-67
2022/03/22 14:24:06;;;;;;;25.83;16.15;;;;;;;;;;5068486;28;20055;-67
2022/03/22 14:26:32;;;;;;;25.83;16.00;;;;;;;;;;5060655;28;20040;-66
2022/03/22 14:28:58;;;;;;;22.45;14.32;;;;;;;;;;5059666;28;20065;-68
2022/03/22 14:31:24;;;;;;;22.88;13.70;;;;;;;;;;5062086;28;20057;-67
2022/03/22 14:33:50;;;;;;;28.60;15.40;;;;;;;;;;5069985;28;20064;-66
2022/03/22 14:36:16;;;;;;;27.50;14.60;;;;;;;;;;5070330;28;20535;-67
2022/03/22 14:38:42;;;;;;;18.38;12.57;;;;;;;;;;5066782;28;20052;-68
2022/03/22 14:41:27;;;;;;;18.58;12.32;;;;;;;;;;5051084;28;20448;-68
2022/03/22 14:43:57;;;;;;;21.45;12.90;;;;;;;;;;5051373;28;20045;-67
2022/03/22 14:46:24;;;;;;;18.67;10.80;;;;;;;;;;5061458;28;20139;-67
2022/03/22 14:48:51;;;;;;;15.93;11.15;;;;;;;;;;5053372;28;20537;-64
2022/03/22 14:54:03;;;;;;;23.60;12.73;;;;;;;;;;5050543;28;20044;-65
2022/03/22 14:59:16;;;;;;;19.83;11.88;;;;;;;;;;5053814;28;20055;-65
2022/03/22 15:01:42;;;;;;;21.77;13.95;;;;;;;;;;5051710;28;20101;-64
2022/03/22 15:04:09;;;;;;;29.40;14.27;;;;;;;;;;5060057;28;20036;-65